sensor_id;sensor_type;location;lat;lon;timestamp;temperature;humidity
3736;DHT22;1883;48.202;16.310;2024-01-15T00:00:16;0.00;62.70
3736;DHT22;1883;48.202;16.310;2024-01-15T00:02:44;0.10;62.80
3736;DHT22;1883;48.202;16.310;2024-01-15T00:05:12;0.20;62.90
3736;DHT22;1883;48.202;16.310;2024-01-15T00:07:39;0.20;62.90
3736;DHT22;1883;48.202;16.310;2024-01-15T00:10:06;0.20;63.00
3736;DHT22;1883;48.202;16.310;2024-01-15T00:12:40;0.30;63.10
3736;DHT22;1883;48.202;16.310;2024-01-15T00:15:17;0.30;63.20
3736;DHT22;1883;48.202;16.310;2024-01-15T00:17:45;0.30;63.20
3736;DHT22;1883;48.202;16.310;2024-01-15T00:20:12;0.30;63.30
3736;DHT22;1883;48.202;16.310;2024-01-15T00:22:41;0.20;63.20
3736;DHT22;1883;48.202;16.310;2024-01-15T00:25:18;0.20;63.20
3736;DHT22;1883;48.202;16.310;2024-01-15T00:27:48;0.20;63.20
3736;DHT22;1883;48.202;16.310;2024-01-15T00:30:16;0.20;63.10
3736;DHT22;1883;48.202;16.310;2024-01-15T00:32:47;0.20;63.10
3736;DHT22;1883;48.202;16.310;2024-01-15T00:35:15;0.20;63.00
3736;DHT22;1883;48.202;16.310;2024-01-15T00:37:53;0.20;63.00
3736;DHT22;1883;48.202;16.310;2024-01-15T00:40:20;0.20;63.00
3736;DHT22;1883;48.202;16.310;2024-01-15T00:42:52;0.20;62.80
3736;DHT22;1883;48.202;16.310;2024-01-15T00:45:20;0.20;62.90
3736;DHT22;1883;48.202;16.310;2024-01-15T00:47:46;0.20;62.90
3736;DHT22;1883;48.202;16.310;2024-01-15T00:50:13;0.10;62.90
3736;DHT22;1883;48.202;16.310;2024-01-15T00:52:43;0.10;62.80
3736;DHT22;1883;48.202;16.310;2024-01-15T00:55:11;0.10;62.80
3736;DHT22;1883;48.202;16.310;2024-01-15T00:57:39;0.10;62.80
3736;DHT22;1883;48.202;16.310;2024-01-15T01:00:14;0.00;62.80
3736;DHT22;1883;48.202;16.310;2024-01-15T01:02:42;-0.10;62.80
3736;DHT22;1883;48.202;16.310;2024-01-15T01:05:10;-0.10;62.60
3736;DHT22;1883;48.202;16.310;2024-01-15T01:07:38;0.00;62.80
3736;DHT22;1883;48.202;16.310;2024-01-15T01:10:10;0.00;62.90
3736;DHT22;1883;48.202;16.310;2024-01-15T01:12:39;0.00;62.90
3736;DHT22;1883;48.202;16.310;2024-01-15T01:15:08;0.10;62.90
3736;DHT22;1883;48.202;16.310;2024-01-15T01:17:38;0.00;63.00
3736;DHT22;1883;48.202;16.310;2024-01-15T01:20:06;0.10;63.10
3736;DHT22;1883;48.202;16.310;2024-01-15T01:22:34;0.10;63.20
3736;DHT22;1883;48.202;16.310;2024-01-15T01:25:01;0.10;63.20
3736;DHT22;1883;48.202;16.310;2024-01-15T01:27:29;0.10;63.20
3736;DHT22;1883;48.202;16.310;2024-01-15T01:29:56;0.10;63.30
3736;DHT22;1883;48.202;16.310;2024-01-15T01:32:25;0.10;63.30
3736;DHT22;1883;48.202;16.310;2024-01-15T01:34:54;0.00;63.20
3736;DHT22;1883;48.202;16.310;2024-01-15T01:37:25;0.00;63.10
3736;DHT22;1883;48.202;16.310;2024-01-15T01:39:54;-0.10;62.90
3736;DHT22;1883;48.202;16.310;2024-01-15T01:42:22;-0.10;63.10
3736;DHT22;1883;48.202;16.310;2024-01-15T01:44:49;-0.10;63.00
3736;DHT22;1883;48.202;16.310;2024-01-15T01:47:16;-0.10;63.10
3736;DHT22;1883;48.202;16.310;2024-01-15T01:49:46;-0.10;63.00
3736;DHT22;1883;48.202;16.310;2024-01-15T01:52:14;-0.10;63.00
3736;DHT22;1883;48.202;16.310;2024-01-15T01:54:41;-0.10;62.80
3736;DHT22;1883;48.202;16.310;2024-01-15T01:57:08;-0.30;62.90
3736;DHT22;1883;48.202;16.310;2024-01-15T01:59:39;-0.40;62.80
3736;DHT22;1883;48.202;16.310;2024-01-15T02:02:06;-0.50;62.70
3736;DHT22;1883;48.202;16.310;2024-01-15T02:04:33;-0.50;62.60
3736;DHT22;1883;48.202;16.310;2024-01-15T02:07:03;-0.50;62.70
3736;DHT22;1883;48.202;16.310;2024-01-15T02:09:32;-0.40;62.80
3736;DHT22;1883;48.202;16.310;2024-01-15T02:11:59;-0.30;62.90
3736;DHT22;1883;48.202;16.310;2024-01-15T02:14:26;-0.30;63.00
3736;DHT22;1883;48.202;16.310;2024-01-15T02:16:59;-0.20;63.10
3736;DHT22;1883;48.202;16.310;2024-01-15T02:19:26;-0.20;63.10
3736;DHT22;1883;48.202;16.310;2024-01-15T02:21:53;-0.20;63.10
3736;DHT22;1883;48.202;16.310;2024-01-15T02:24:21;-0.20;63.00
3736;DHT22;1883;48.202;16.310;2024-01-15T02:26:48;-0.20;63.10
3736;DHT22;1883;48.202;16.310;2024-01-15T02:29:15;-0.20;63.10
3736;DHT22;1883;48.202;16.310;2024-01-15T02:31:45;-0.20;63.10
3736;DHT22;1883;48.202;16.310;2024-01-15T02:34:13;-0.10;63.20
3736;DHT22;1883;48.202;16.310;2024-01-15T02:36:40;-0.10;63.20
3736;DHT22;1883;48.202;16.310;2024-01-15T02:39:07;-0.10;63.30
3736;DHT22;1883;48.202;16.310;2024-01-15T02:41:35;0.00;63.40
3736;DHT22;1883;48.202;16.310;2024-01-15T02:44:02;0.10;63.60
3736;DHT22;1883;48.202;16.310;2024-01-15T02:46:29;0.10;63.60
3736;DHT22;1883;48.202;16.310;2024-01-15T02:48:56;0.10;63.70
3736;DHT22;1883;48.202;16.310;2024-01-15T02:51:23;0.10;63.70
3736;DHT22;1883;48.202;16.310;2024-01-15T02:53:50;0.20;63.70
3736;DHT22;1883;48.202;16.310;2024-01-15T02:56:17;0.20;63.80
3736;DHT22;1883;48.202;16.310;2024-01-15T02:58:45;0.20;63.80
3736;DHT22;1883;48.202;16.310;2024-01-15T03:01:12;0.30;63.80
3736;DHT22;1883;48.202;16.310;2024-01-15T03:03:40;0.30;63.70
3736;DHT22;1883;48.202;16.310;2024-01-15T03:06:07;0.30;63.90
3736;DHT22;1883;48.202;16.310;2024-01-15T03:08:34;0.30;63.90
3736;DHT22;1883;48.202;16.310;2024-01-15T03:11:01;0.30;64.00
3736;DHT22;1883;48.202;16.310;2024-01-15T03:13:28;0.40;64.00
3736;DHT22;1883;48.202;16.310;2024-01-15T03:15:56;0.40;64.00
3736;DHT22;1883;48.202;16.310;2024-01-15T03:18:23;0.40;64.00
3736;DHT22;1883;48.202;16.310;2024-01-15T03:20:50;0.40;64.10
3736;DHT22;1883;48.202;16.310;2024-01-15T03:23:17;0.50;64.20
3736;DHT22;1883;48.202;16.310;2024-01-15T03:25:44;0.50;64.20
3736;DHT22;1883;48.202;16.310;2024-01-15T03:28:11;0.50;64.20
3736;DHT22;1883;48.202;16.310;2024-01-15T03:30:38;0.50;64.20
3736;DHT22;1883;48.202;16.310;2024-01-15T03:33:06;0.50;64.20
3736;DHT22;1883;48.202;16.310;2024-01-15T03:35:35;0.40;64.10
3736;DHT22;1883;48.202;16.310;2024-01-15T03:38:03;0.40;64.10
3736;DHT22;1883;48.202;16.310;2024-01-15T03:40:30;0.50;64.00
3736;DHT22;1883;48.202;16.310;2024-01-15T03:42:56;0.40;64.00
3736;DHT22;1883;48.202;16.310;2024-01-15T03:45:23;0.40;64.00
3736;DHT22;1883;48.202;16.310;2024-01-15T03:47:50;0.30;63.90
3736;DHT22;1883;48.202;16.310;2024-01-15T03:50:19;0.30;63.80
3736;DHT22;1883;48.202;16.310;2024-01-15T03:52:49;0.30;63.70
3736;DHT22;1883;48.202;16.310;2024-01-15T03:55:16;0.30;63.60
3736;DHT22;1883;48.202;16.310;2024-01-15T03:57:43;0.20;63.60
3736;DHT22;1883;48.202;16.310;2024-01-15T04:00:11;0.20;63.50
3736;DHT22;1883;48.202;16.310;2024-01-15T04:02:38;0.20;63.40
3736;DHT22;1883;48.202;16.310;2024-01-15T04:05:05;0.10;63.50
3736;DHT22;1883;48.202;16.310;2024-01-15T04:07:33;0.10;63.50
3736;DHT22;1883;48.202;16.310;2024-01-15T04:10:00;0.10;63.40
3736;DHT22;1883;48.202;16.310;2024-01-15T04:12:27;0.20;63.40
3736;DHT22;1883;48.202;16.310;2024-01-15T04:14:54;0.20;63.40
3736;DHT22;1883;48.202;16.310;2024-01-15T04:17:21;0.30;63.40
3736;DHT22;1883;48.202;16.310;2024-01-15T04:19:49;0.30;63.50
3736;DHT22;1883;48.202;16.310;2024-01-15T04:22:16;0.30;63.50
3736;DHT22;1883;48.202;16.310;2024-01-15T04:24:44;0.40;63.40
3736;DHT22;1883;48.202;16.310;2024-01-15T04:27:11;0.40;63.50
3736;DHT22;1883;48.202;16.310;2024-01-15T04:29:38;0.40;63.60
3736;DHT22;1883;48.202;16.310;2024-01-15T04:32:06;0.50;63.60
3736;DHT22;1883;48.202;16.310;2024-01-15T04:34:33;0.50;63.60
3736;DHT22;1883;48.202;16.310;2024-01-15T04:37:00;0.50;63.60
3736;DHT22;1883;48.202;16.310;2024-01-15T04:39:27;0.50;63.40
3736;DHT22;1883;48.202;16.310;2024-01-15T04:41:58;0.50;63.50
3736;DHT22;1883;48.202;16.310;2024-01-15T04:44:25;0.50;63.50
3736;DHT22;1883;48.202;16.310;2024-01-15T04:46:52;0.40;63.40
3736;DHT22;1883;48.202;16.310;2024-01-15T04:49:19;0.30;63.40
3736;DHT22;1883;48.202;16.310;2024-01-15T04:51:46;0.30;63.30
3736;DHT22;1883;48.202;16.310;2024-01-15T04:54:13;0.20;63.30
3736;DHT22;1883;48.202;16.310;2024-01-15T04:56:43;0.20;63.20
3736;DHT22;1883;48.202;16.310;2024-01-15T04:59:11;0.20;63.20
3736;DHT22;1883;48.202;16.310;2024-01-15T05:01:39;0.20;63.20
3736;DHT22;1883;48.202;16.310;2024-01-15T05:04:05;0.20;63.20
3736;DHT22;1883;48.202;16.310;2024-01-15T05:06:33;0.20;63.20
3736;DHT22;1883;48.202;16.310;2024-01-15T05:08:59;0.20;63.10
3736;DHT22;1883;48.202;16.310;2024-01-15T05:11:26;0.10;63.10
3736;DHT22;1883;48.202;16.310;2024-01-15T05:13:53;0.10;63.10
3736;DHT22;1883;48.202;16.310;2024-01-15T05:16:21;0.00;63.10
3736;DHT22;1883;48.202;16.310;2024-01-15T05:18:48;0.00;63.10
3736;DHT22;1883;48.202;16.310;2024-01-15T05:21:15;0.00;63.10
3736;DHT22;1883;48.202;16.310;2024-01-15T05:23:42;0.00;63.10
3736;DHT22;1883;48.202;16.310;2024-01-15T05:26:11;-0.10;63.10
3736;DHT22;1883;48.202;16.310;2024-01-15T05:28:38;0.00;63.10
3736;DHT22;1883;48.202;16.310;2024-01-15T05:31:04;0.00;63.10
3736;DHT22;1883;48.202;16.310;2024-01-15T05:33:33;0.00;63.10
3736;DHT22;1883;48.202;16.310;2024-01-15T05:36:00;-0.10;63.20
3736;DHT22;1883;48.202;16.310;2024-01-15T05:38:27;-0.10;63.20
3736;DHT22;1883;48.202;16.310;2024-01-15T05:40:54;-0.10;63.20
3736;DHT22;1883;48.202;16.310;2024-01-15T05:43:22;-0.10;63.20
3736;DHT22;1883;48.202;16.310;2024-01-15T05:45:48;-0.10;63.10
3736;DHT22;1883;48.202;16.310;2024-01-15T05:48:15;-0.10;63.20
3736;DHT22;1883;48.202;16.310;2024-01-15T05:50:44;-0.20;63.20
3736;DHT22;1883;48.202;16.310;2024-01-15T05:53:11;-0.20;63.10
3736;DHT22;1883;48.202;16.310;2024-01-15T05:55:38;-0.20;63.10
3736;DHT22;1883;48.202;16.310;2024-01-15T05:58:05;-0.20;63.10
3736;DHT22;1883;48.202;16.310;2024-01-15T06:00:32;-0.10;63.20
3736;DHT22;1883;48.202;16.310;2024-01-15T06:03:01;0.00;63.20
3736;DHT22;1883;48.202;16.310;2024-01-15T06:05:27;-0.10;63.20
3736;DHT22;1883;48.202;16.310;2024-01-15T06:07:56;-0.10;63.20
3736;DHT22;1883;48.202;16.310;2024-01-15T06:10:23;-0.10;63.10
3736;DHT22;1883;48.202;16.310;2024-01-15T06:12:50;0.00;63.10
3736;DHT22;1883;48.202;16.310;2024-01-15T06:15:24;0.10;63.10
3736;DHT22;1883;48.202;16.310;2024-01-15T06:17:51;0.10;63.10
3736;DHT22;1883;48.202;16.310;2024-01-15T06:20:19;0.10;63.10
3736;DHT22;1883;48.202;16.310;2024-01-15T06:22:49;0.10;63.10
3736;DHT22;1883;48.202;16.310;2024-01-15T06:25:18;0.10;63.10
3736;DHT22;1883;48.202;16.310;2024-01-15T06:27:46;0.10;63.10
3736;DHT22;1883;48.202;16.310;2024-01-15T06:30:24;0.00;63.00
3736;DHT22;1883;48.202;16.310;2024-01-15T06:32:56;0.00;63.00
3736;DHT22;1883;48.202;16.310;2024-01-15T06:35:23;0.00;63.00
3736;DHT22;1883;48.202;16.310;2024-01-15T06:37:52;0.00;62.90
3736;DHT22;1883;48.202;16.310;2024-01-15T06:40:25;0.00;62.90
3736;DHT22;1883;48.202;16.310;2024-01-15T06:42:52;-0.10;62.90
3736;DHT22;1883;48.202;16.310;2024-01-15T06:45:33;0.00;62.80
3736;DHT22;1883;48.202;16.310;2024-01-15T06:48:01;-0.10;62.80
3736;DHT22;1883;48.202;16.310;2024-01-15T06:50:29;-0.10;62.80
3736;DHT22;1883;48.202;16.310;2024-01-15T06:53:04;0.00;62.80
3736;DHT22;1883;48.202;16.310;2024-01-15T06:55:41;0.10;62.90
3736;DHT22;1883;48.202;16.310;2024-01-15T06:58:08;0.10;62.90
3736;DHT22;1883;48.202;16.310;2024-01-15T07:00:51;0.00;63.00
3736;DHT22;1883;48.202;16.310;2024-01-15T07:03:25;0.00;62.90
3736;DHT22;1883;48.202;16.310;2024-01-15T07:05:53;-0.10;62.90
3736;DHT22;1883;48.202;16.310;2024-01-15T07:08:20;-0.10;62.90
3736;DHT22;1883;48.202;16.310;2024-01-15T07:10:50;0.00;62.90
3736;DHT22;1883;48.202;16.310;2024-01-15T07:13:18;0.00;63.00
3736;DHT22;1883;48.202;16.310;2024-01-15T07:15:46;0.00;63.00
3736;DHT22;1883;48.202;16.310;2024-01-15T07:18:14;0.00;63.10
3736;DHT22;1883;48.202;16.310;2024-01-15T07:20:44;0.10;63.10
3736;DHT22;1883;48.202;16.310;2024-01-15T07:23:11;0.00;63.20
3736;DHT22;1883;48.202;16.310;2024-01-15T07:25:43;0.00;63.20
3736;DHT22;1883;48.202;16.310;2024-01-15T07:28:11;0.10;63.30
3736;DHT22;1883;48.202;16.310;2024-01-15T07:30:39;0.10;63.30
3736;DHT22;1883;48.202;16.310;2024-01-15T07:33:06;0.20;63.30
3736;DHT22;1883;48.202;16.310;2024-01-15T07:35:34;0.20;63.40
3736;DHT22;1883;48.202;16.310;2024-01-15T07:38:04;0.20;63.30
3736;DHT22;1883;48.202;16.310;2024-01-15T07:40:32;0.20;63.30
3736;DHT22;1883;48.202;16.310;2024-01-15T07:45:36;0.30;63.40
3736;DHT22;1883;48.202;16.310;2024-01-15T07:48:04;0.40;63.40
3736;DHT22;1883;48.202;16.310;2024-01-15T07:50:31;0.40;63.50
3736;DHT22;1883;48.202;16.310;2024-01-15T07:52:58;0.50;63.60
3736;DHT22;1883;48.202;16.310;2024-01-15T07:55:25;0.50;63.70
3736;DHT22;1883;48.202;16.310;2024-01-15T07:57:59;0.50;63.60
3736;DHT22;1883;48.202;16.310;2024-01-15T08:00:27;0.60;63.60
3736;DHT22;1883;48.202;16.310;2024-01-15T08:02:59;0.70;63.70
3736;DHT22;1883;48.202;16.310;2024-01-15T08:05:27;0.60;63.70
3736;DHT22;1883;48.202;16.310;2024-01-15T08:07:55;0.60;63.60
3736;DHT22;1883;48.202;16.310;2024-01-15T08:10:27;0.70;63.50
3736;DHT22;1883;48.202;16.310;2024-01-15T08:12:54;0.70;63.70
3736;DHT22;1883;48.202;16.310;2024-01-15T08:15:21;0.70;63.50
3736;DHT22;1883;48.202;16.310;2024-01-15T08:17:48;0.70;63.70
3736;DHT22;1883;48.202;16.310;2024-01-15T08:20:17;0.70;63.70
3736;DHT22;1883;48.202;16.310;2024-01-15T08:22:45;0.70;63.80
3736;DHT22;1883;48.202;16.310;2024-01-15T08:25:15;0.70;63.70
3736;DHT22;1883;48.202;16.310;2024-01-15T08:27:42;0.60;63.60
3736;DHT22;1883;48.202;16.310;2024-01-15T08:30:11;0.70;63.70
3736;DHT22;1883;48.202;16.310;2024-01-15T08:32:39;0.80;63.70
3736;DHT22;1883;48.202;16.310;2024-01-15T08:35:08;0.80;63.80
3736;DHT22;1883;48.202;16.310;2024-01-15T08:37:40;0.80;63.70
3736;DHT22;1883;48.202;16.310;2024-01-15T08:40:08;0.80;63.80
3736;DHT22;1883;48.202;16.310;2024-01-15T08:42:35;0.80;63.80
3736;DHT22;1883;48.202;16.310;2024-01-15T08:45:03;0.80;63.80
3736;DHT22;1883;48.202;16.310;2024-01-15T08:47:31;0.90;63.80
3736;DHT22;1883;48.202;16.310;2024-01-15T08:49:58;0.90;63.90
3736;DHT22;1883;48.202;16.310;2024-01-15T08:52:25;0.90;63.90
3736;DHT22;1883;48.202;16.310;2024-01-15T08:54:55;1.00;63.90
3736;DHT22;1883;48.202;16.310;2024-01-15T08:57:23;1.10;64.00
3736;DHT22;1883;48.202;16.310;2024-01-15T08:59:50;1.10;64.10
3736;DHT22;1883;48.202;16.310;2024-01-15T09:02:17;1.20;63.90
3736;DHT22;1883;48.202;16.310;2024-01-15T09:04:46;1.20;64.10
3736;DHT22;1883;48.202;16.310;2024-01-15T09:07:15;1.30;64.10
3736;DHT22;1883;48.202;16.310;2024-01-15T09:09:42;1.30;64.20
3736;DHT22;1883;48.202;16.310;2024-01-15T09:12:10;1.40;64.30
3736;DHT22;1883;48.202;16.310;2024-01-15T09:14:43;1.40;64.30
3736;DHT22;1883;48.202;16.310;2024-01-15T09:17:10;1.50;64.40
3736;DHT22;1883;48.202;16.310;2024-01-15T09:19:38;1.50;64.40
3736;DHT22;1883;48.202;16.310;2024-01-15T09:22:05;1.40;64.40
3736;DHT22;1883;48.202;16.310;2024-01-15T09:24:32;1.40;64.30
3736;DHT22;1883;48.202;16.310;2024-01-15T09:26:59;1.30;64.30
3736;DHT22;1883;48.202;16.310;2024-01-15T09:29:30;1.30;64.30
3736;DHT22;1883;48.202;16.310;2024-01-15T09:31:59;1.20;64.10
3736;DHT22;1883;48.202;16.310;2024-01-15T09:34:28;1.20;64.10
3736;DHT22;1883;48.202;16.310;2024-01-15T09:37:02;1.20;63.90
3736;DHT22;1883;48.202;16.310;2024-01-15T09:39:29;1.30;64.00
3736;DHT22;1883;48.202;16.310;2024-01-15T09:41:57;1.30;63.90
3736;DHT22;1883;48.202;16.310;2024-01-15T09:44:25;1.30;64.00
3736;DHT22;1883;48.202;16.310;2024-01-15T09:47:00;1.40;64.00
3736;DHT22;1883;48.202;16.310;2024-01-15T09:49:31;1.40;64.00
3736;DHT22;1883;48.202;16.310;2024-01-15T09:51:58;1.50;64.10
3736;DHT22;1883;48.202;16.310;2024-01-15T09:54:27;1.60;64.10
3736;DHT22;1883;48.202;16.310;2024-01-15T09:56:55;1.70;64.10
3736;DHT22;1883;48.202;16.310;2024-01-15T09:59:22;1.80;64.20
3736;DHT22;1883;48.202;16.310;2024-01-15T10:01:51;1.90;64.30
3736;DHT22;1883;48.202;16.310;2024-01-15T10:04:35;2.00;64.30
3736;DHT22;1883;48.202;16.310;2024-01-15T10:07:16;2.10;64.40
3736;DHT22;1883;48.202;16.310;2024-01-15T10:09:45;2.10;64.40
3736;DHT22;1883;48.202;16.310;2024-01-15T10:12:12;2.20;64.40
3736;DHT22;1883;48.202;16.310;2024-01-15T10:14:42;2.20;64.50
3736;DHT22;1883;48.202;16.310;2024-01-15T10:17:13;2.30;64.50
3736;DHT22;1883;48.202;16.310;2024-01-15T10:19:53;2.20;64.50
3736;DHT22;1883;48.202;16.310;2024-01-15T10:22:21;2.30;64.50
3736;DHT22;1883;48.202;16.310;2024-01-15T10:24:48;2.20;64.50
3736;DHT22;1883;48.202;16.310;2024-01-15T10:27:16;2.20;64.50
3736;DHT22;1883;48.202;16.310;2024-01-15T10:29:45;2.20;64.40
3736;DHT22;1883;48.202;16.310;2024-01-15T10:32:12;2.20;64.50
3736;DHT22;1883;48.202;16.310;2024-01-15T10:34:39;2.30;64.60
3736;DHT22;1883;48.202;16.310;2024-01-15T10:37:10;2.30;64.60
3736;DHT22;1883;48.202;16.310;2024-01-15T10:39:40;2.30;64.60
3736;DHT22;1883;48.202;16.310;2024-01-15T10:42:08;2.30;64.60
3736;DHT22;1883;48.202;16.310;2024-01-15T10:44:38;2.30;64.50
3736;DHT22;1883;48.202;16.310;2024-01-15T10:47:09;2.40;64.60
3736;DHT22;1883;48.202;16.310;2024-01-15T10:49:37;2.40;64.70
3736;DHT22;1883;48.202;16.310;2024-01-15T10:52:07;2.40;64.60
3736;DHT22;1883;48.202;16.310;2024-01-15T10:54:38;2.50;64.70
3736;DHT22;1883;48.202;16.310;2024-01-15T10:57:06;2.50;64.80
3736;DHT22;1883;48.202;16.310;2024-01-15T10:59:33;2.60;64.90
3736;DHT22;1883;48.202;16.310;2024-01-15T11:02:00;2.60;64.90
3736;DHT22;1883;48.202;16.310;2024-01-15T11:04:33;2.70;65.00
3736;DHT22;1883;48.202;16.310;2024-01-15T11:07:02;2.70;65.00
3736;DHT22;1883;48.202;16.310;2024-01-15T11:09:30;2.70;65.00
3736;DHT22;1883;48.202;16.310;2024-01-15T11:12:09;2.80;65.00
3736;DHT22;1883;48.202;16.310;2024-01-15T11:14:44;2.90;65.10
3736;DHT22;1883;48.202;16.310;2024-01-15T11:17:14;2.90;65.10
3736;DHT22;1883;48.202;16.310;2024-01-15T11:19:46;3.00;65.20
3736;DHT22;1883;48.202;16.310;2024-01-15T11:22:47;3.10;65.30
3736;DHT22;1883;48.202;16.310;2024-01-15T11:25:17;3.10;65.30
3736;DHT22;1883;48.202;16.310;2024-01-15T11:27:51;3.10;65.30
3736;DHT22;1883;48.202;16.310;2024-01-15T11:30:19;3.10;65.30
3736;DHT22;1883;48.202;16.310;2024-01-15T11:32:46;3.10;65.30
3736;DHT22;1883;48.202;16.310;2024-01-15T11:35:14;3.10;65.30
3736;DHT22;1883;48.202;16.310;2024-01-15T11:38:04;3.10;65.20
3736;DHT22;1883;48.202;16.310;2024-01-15T11:40:39;3.10;65.20
3736;DHT22;1883;48.202;16.310;2024-01-15T11:43:10;3.20;65.20
3736;DHT22;1883;48.202;16.310;2024-01-15T11:45:53;3.20;65.20
3736;DHT22;1883;48.202;16.310;2024-01-15T11:48:21;3.20;65.30
3736;DHT22;1883;48.202;16.310;2024-01-15T11:50:51;3.20;65.20
3736;DHT22;1883;48.202;16.310;2024-01-15T11:53:34;3.30;65.20
3736;DHT22;1883;48.202;16.310;2024-01-15T11:56:09;3.10;65.10
3736;DHT22;1883;48.202;16.310;2024-01-15T11:58:43;3.10;65.00
3736;DHT22;1883;48.202;16.310;2024-01-15T12:01:11;3.00;64.90
3736;DHT22;1883;48.202;16.310;2024-01-15T12:03:38;3.00;64.80
3736;DHT22;1883;48.202;16.310;2024-01-15T12:06:06;3.00;64.80
3736;DHT22;1883;48.202;16.310;2024-01-15T12:08:33;2.90;64.80
3736;DHT22;1883;48.202;16.310;2024-01-15T12:11:01;2.90;64.70
3736;DHT22;1883;48.202;16.310;2024-01-15T12:13:33;2.90;64.70
3736;DHT22;1883;48.202;16.310;2024-01-15T12:16:01;2.90;64.70
3736;DHT22;1883;48.202;16.310;2024-01-15T12:18:29;2.80;64.50
3736;DHT22;1883;48.202;16.310;2024-01-15T12:20:57;2.80;64.70
3736;DHT22;1883;48.202;16.310;2024-01-15T12:23:25;2.80;64.70
3736;DHT22;1883;48.202;16.310;2024-01-15T12:25:56;2.90;64.80
3736;DHT22;1883;48.202;16.310;2024-01-15T12:28:27;2.90;64.70
3736;DHT22;1883;48.202;16.310;2024-01-15T12:30:58;2.90;64.90
3736;DHT22;1883;48.202;16.310;2024-01-15T12:33:35;3.00;64.80
3736;DHT22;1883;48.202;16.310;2024-01-15T12:36:06;3.00;65.00
3736;DHT22;1883;48.202;16.310;2024-01-15T12:38:34;3.00;65.20
3736;DHT22;1883;48.202;16.310;2024-01-15T12:41:02;3.00;65.10
3736;DHT22;1883;48.202;16.310;2024-01-15T12:43:31;3.00;65.10
3736;DHT22;1883;48.202;16.310;2024-01-15T12:45:59;3.00;65.20
3736;DHT22;1883;48.202;16.310;2024-01-15T12:48:26;2.90;65.20
3736;DHT22;1883;48.202;16.310;2024-01-15T12:50:58;2.90;65.20
3736;DHT22;1883;48.202;16.310;2024-01-15T12:53:40;2.90;65.20
3736;DHT22;1883;48.202;16.310;2024-01-15T12:56:16;2.90;65.10
3736;DHT22;1883;48.202;16.310;2024-01-15T12:58:47;2.90;65.20
3736;DHT22;1883;48.202;16.310;2024-01-15T13:01:20;2.90;65.10
3736;DHT22;1883;48.202;16.310;2024-01-15T13:03:58;2.90;65.20
3736;DHT22;1883;48.202;16.310;2024-01-15T13:06:30;2.90;65.20
3736;DHT22;1883;48.202;16.310;2024-01-15T13:09:23;2.90;65.30
3736;DHT22;1883;48.202;16.310;2024-01-15T13:11:53;2.90;65.30
3736;DHT22;1883;48.202;16.310;2024-01-15T13:14:24;2.80;65.30
3736;DHT22;1883;48.202;16.310;2024-01-15T13:16:54;2.90;65.30
3736;DHT22;1883;48.202;16.310;2024-01-15T13:19:22;2.90;65.30
3736;DHT22;1883;48.202;16.310;2024-01-15T13:22:06;2.90;65.40
3736;DHT22;1883;48.202;16.310;2024-01-15T13:24:47;2.90;65.30
3736;DHT22;1883;48.202;16.310;2024-01-15T13:27:14;2.90;65.60
3736;DHT22;1883;48.202;16.310;2024-01-15T13:29:44;2.90;65.70
3736;DHT22;1883;48.202;16.310;2024-01-15T13:32:13;2.90;65.70
3736;DHT22;1883;48.202;16.310;2024-01-15T13:34:47;2.90;65.80
3736;DHT22;1883;48.202;16.310;2024-01-15T13:37:15;3.00;65.80
3736;DHT22;1883;48.202;16.310;2024-01-15T13:39:43;3.00;65.90
3736;DHT22;1883;48.202;16.310;2024-01-15T13:42:10;3.00;66.00
3736;DHT22;1883;48.202;16.310;2024-01-15T13:44:39;3.00;66.00
3736;DHT22;1883;48.202;16.310;2024-01-15T13:47:09;3.00;66.10
3736;DHT22;1883;48.202;16.310;2024-01-15T13:49:37;2.90;66.00
3736;DHT22;1883;48.202;16.310;2024-01-15T13:52:07;2.90;66.10
3736;DHT22;1883;48.202;16.310;2024-01-15T13:54:40;2.90;66.20
3736;DHT22;1883;48.202;16.310;2024-01-15T13:57:15;2.90;66.10
3736;DHT22;1883;48.202;16.310;2024-01-15T14:00:06;2.90;66.10
3736;DHT22;1883;48.202;16.310;2024-01-15T14:02:46;2.80;66.00
3736;DHT22;1883;48.202;16.310;2024-01-15T14:05:14;2.80;66.10
3736;DHT22;1883;48.202;16.310;2024-01-15T14:07:54;2.80;66.00
3736;DHT22;1883;48.202;16.310;2024-01-15T14:10:41;2.80;66.10
3736;DHT22;1883;48.202;16.310;2024-01-15T14:13:08;2.80;66.00
3736;DHT22;1883;48.202;16.310;2024-01-15T14:15:38;2.70;66.10
3736;DHT22;1883;48.202;16.310;2024-01-15T14:18:10;2.70;66.10
3736;DHT22;1883;48.202;16.310;2024-01-15T14:20:40;2.70;66.10
3736;DHT22;1883;48.202;16.310;2024-01-15T14:23:09;2.70;66.10
3736;DHT22;1883;48.202;16.310;2024-01-15T14:25:40;2.60;66.10
3736;DHT22;1883;48.202;16.310;2024-01-15T14:28:08;2.60;66.00
3736;DHT22;1883;48.202;16.310;2024-01-15T14:30:37;2.50;66.00
3736;DHT22;1883;48.202;16.310;2024-01-15T14:33:04;2.50;65.90
3736;DHT22;1883;48.202;16.310;2024-01-15T14:35:32;2.40;65.90
3736;DHT22;1883;48.202;16.310;2024-01-15T14:38:02;2.30;65.80
3736;DHT22;1883;48.202;16.310;2024-01-15T14:40:48;2.30;65.80
3736;DHT22;1883;48.202;16.310;2024-01-15T14:43:21;2.30;65.80
3736;DHT22;1883;48.202;16.310;2024-01-15T14:45:58;2.20;65.80
3736;DHT22;1883;48.202;16.310;2024-01-15T14:48:39;2.20;65.70
3736;DHT22;1883;48.202;16.310;2024-01-15T14:51:33;2.20;65.70
3736;DHT22;1883;48.202;16.310;2024-01-15T14:54:24;2.10;65.60
3736;DHT22;1883;48.202;16.310;2024-01-15T14:56:54;2.10;65.50
3736;DHT22;1883;48.202;16.310;2024-01-15T14:59:24;2.10;65.50
3736;DHT22;1883;48.202;16.310;2024-01-15T15:02:03;2.00;65.50
3736;DHT22;1883;48.202;16.310;2024-01-15T15:04:51;2.00;65.50
3736;DHT22;1883;48.202;16.310;2024-01-15T15:07:26;2.00;65.40
3736;DHT22;1883;48.202;16.310;2024-01-15T15:10:09;1.90;65.30
3736;DHT22;1883;48.202;16.310;2024-01-15T15:12:55;1.90;65.30
3736;DHT22;1883;48.202;16.310;2024-01-15T15:15:24;1.90;65.20
3736;DHT22;1883;48.202;16.310;2024-01-15T15:18:01;1.90;65.30
3736;DHT22;1883;48.202;16.310;2024-01-15T15:20:28;1.90;65.20
3736;DHT22;1883;48.202;16.310;2024-01-15T15:22:56;1.90;65.30
3736;DHT22;1883;48.202;16.310;2024-01-15T15:25:23;1.80;65.20
3736;DHT22;1883;48.202;16.310;2024-01-15T15:27:50;1.90;65.20
3736;DHT22;1883;48.202;16.310;2024-01-15T15:30:19;1.80;65.20
3736;DHT22;1883;48.202;16.310;2024-01-15T15:32:47;1.90;65.20
3736;DHT22;1883;48.202;16.310;2024-01-15T15:35:14;1.80;65.20
3736;DHT22;1883;48.202;16.310;2024-01-15T15:37:41;1.80;65.00
3736;DHT22;1883;48.202;16.310;2024-01-15T15:40:11;1.70;65.10
3736;DHT22;1883;48.202;16.310;2024-01-15T15:42:41;1.70;65.10
3736;DHT22;1883;48.202;16.310;2024-01-15T15:45:09;1.80;65.10
3736;DHT22;1883;48.202;16.310;2024-01-15T15:47:52;1.80;65.10
3736;DHT22;1883;48.202;16.310;2024-01-15T15:50:19;1.70;65.00
3736;DHT22;1883;48.202;16.310;2024-01-15T15:52:49;1.70;65.00
3736;DHT22;1883;48.202;16.310;2024-01-15T15:55:18;1.70;65.00
3736;DHT22;1883;48.202;16.310;2024-01-15T15:57:46;1.70;65.00
3736;DHT22;1883;48.202;16.310;2024-01-15T16:00:14;1.70;65.00
3736;DHT22;1883;48.202;16.310;2024-01-15T16:02:41;1.70;65.00
3736;DHT22;1883;48.202;16.310;2024-01-15T16:05:13;1.60;65.00
3736;DHT22;1883;48.202;16.310;2024-01-15T16:07:40;1.60;65.00
3736;DHT22;1883;48.202;16.310;2024-01-15T16:10:08;1.60;65.00
3736;DHT22;1883;48.202;16.310;2024-01-15T16:12:35;1.70;65.00
3736;DHT22;1883;48.202;16.310;2024-01-15T16:15:19;1.70;65.10
3736;DHT22;1883;48.202;16.310;2024-01-15T16:17:47;1.70;65.10